Pagrindinis puslapis
METAR-TAF:

METAR-TAF

Oro uostai :

Namsos, Norvegija

platuma: 64-28N, ilguma: 011-35E, Aukštis: 0 m

Dabartinis oras

Ataskaita buvo paskelbta 41 minutes, ne 20:20 UTC
Vėjas 4 kt iš Šiaurės
Temperatūra 14°C
Drėgmė 88%
Slėgis 1012 hPa
Matomumas 10 km arba daugiau
Mažai debesys ne aukštis 2000 ft
Su prošvaistėmis ne aukštis 3200 ft

METAR: ENNM 172020Z 35004KT 9999 FEW020 BKN032 14/12 Q1012

Laikas: 23:01 (21:01 UTC)


TAF: trūkstamas

Orai ataskaitas ir orų prognozės (METAR, TAF).

turimą stotys yra geltonos ir raudonos taškus žemėlapyje.

Perkelti pele per norėdami pamatyti stoties vardą.

Tada spustelėkite, norėdami matyti oro stebėjimo ir prognozės.

Norėdami pakeisti žemėlapį: spustelėkite ant žalios mygtukų su juodo kryžiaus žemyn,; žalią mygtuką su brūkšneliu, jei norite nutolinti; arba žalių rodyklių gretimoms žemėlapius.


METAR-TAF: